EDT,Max TemperatureF,Mean TemperatureF,Min TemperatureF,Max Dew PointF,MeanDew PointF,Min DewpointF,Max Humidity, Mean Humidity, Min Humidity, Max Sea Level PressureIn, Mean Sea Level PressureIn, Min Sea Level PressureIn, Max VisibilityMiles, Mean VisibilityMiles, Min VisibilityMiles, Max Wind SpeedMPH, Mean Wind SpeedMPH, Max Gust SpeedMPH,PrecipitationIn, CloudCover, Events, WindDirDegrees
2012-10-1,65,48,32,48,40,32,100,78,40,29.96,29.91,29.84,10,8,0,7,1,,0.00,1,Fog,223
2012-10-2,69,56,43,52,46,40,97,73,34,29.95,29.89,29.84,10,10,2,12,2,16,0.00,1,,69
2012-10-3,62,56,50,60,56,49,98,94,88,30.03,29.98,29.93,10,8,1,7,1,,0.02,8,Rain,174
2012-10-4,75,66,57,60,56,50,99,82,44,30.02,29.98,29.94,10,8,2,16,6,24,0.36,7,Rain,214
2012-10-5,60,52,43,53,39,32,81,62,39,30.04,29.97,29.91,10,10,10,16,10,24,0.00,3,,250
2012-10-6,53,42,32,35,32,29,99,64,48,30.11,29.98,29.89,10,10,10,18,8,29,0.00,5,,274
2012-10-7,49,40,29,36,33,29,100,80,49,30.12,30.10,30.06,10,10,10,9,1,16,0.00,6,Rain,252
2012-10-8,56,40,25,33,29,25,100,68,35,30.15,30.10,30.05,10,10,5,18,4,24,0.00,1,,196
2012-10-9,63,52,42,38,34,28,62,49,37,30.04,29.89,29.73,10,10,10,24,10,32,0.00,2,,189
2012-10-10,50,42,33,42,33,23,97,75,44,30.11,29.91,29.76,10,10,7,20,10,31,0.03,6,Rain,259
2012-10-11,59,42,26,43,33,25,96,76,44,30.16,30.06,29.93,10,10,10,25,6,45,0.00,5,Rain,244
2012-10-12,48,37,26,33,27,21,100,71,33,30.45,30.36,30.17,10,10,10,9,3,,0.00,0,,309
2012-10-13,51,40,28,51,39,27,99,90,74,30.37,30.10,29.81,10,7,2,12,3,,0.25,6,Rain,163
2012-10-14,69,60,51,63,59,48,99,94,75,29.81,29.58,29.36,10,5,1,16,7,26,1.06,8,Rain,196
2012-10-15,50,47,44,47,40,36,89,78,67,29.94,29.73,29.43,10,10,7,21,12,30,0.00,8,Rain,284
2012-10-16,57,44,30,42,37,30,100,72,47,29.96,29.85,29.71,10,10,10,13,3,,0.00,2,Rain,163
2012-10-17,73,62,51,55,47,41,92,65,34,29.70,29.58,29.50,10,10,7,18,8,25,0.01,4,Rain,167
2012-10-18,59,52,45,56,46,36,95,78,48,29.63,29.47,29.32,10,10,5,24,10,41,0.18,7,Rain,166
2012-10-19,51,46,41,46,43,38,97,85,71,29.63,29.57,29.53,10,10,5,14,3,23,0.07,7,Rain,146
2012-10-20,56,48,41,46,44,41,99,88,64,29.87,29.68,29.56,10,9,2,10,2,17,0.04,6,Rain,282
2012-10-21,62,47,32,49,41,33,100,83,46,30.07,30.01,29.88,10,6,0,12,2,17,0.00,4,Fog,240
2012-10-22,70,52,35,59,46,35,100,84,54,30.07,30.01,29.94,10,9,3,9,1,,0.07,3,Rain,130
2012-10-23,57,56,54,57,56,54,100,98,96,30.02,29.95,29.89,5,2,0,9,5,16,0.15,8,Fog-Rain,48
2012-10-24,73,64,54,63,58,54,100,90,67,30.01,29.97,29.92,10,5,0,8,3,,0.02,7,Fog-Rain,105
2012-10-25,78,68,59,59,56,54,88,66,45,29.92,29.82,29.73,10,10,7,24,9,33,0.00,1,,181
2012-10-26,70,54,37,58,37,30,95,72,47,30.27,30.13,29.74,10,10,4,21,10,34,0.00,4,Rain,296
2012-10-27,51,38,26,35,30,26,99,73,44,30.27,30.23,30.18,10,10,10,9,3,,0.00,2,,354
2012-10-28,48,40,32,32,27,22,85,62,38,30.27,30.23,30.19,10,10,10,16,7,24,0.00,2,,3
2012-10-29,44,40,35,28,25,20,74,57,41,30.19,30.09,29.86,10,10,10,21,10,30,0.00,0,,343
2012-10-30,39,36,34,36,32,20,97,87,47,29.85,29.63,29.56,10,7,2,22,15,33,0.05,8,Rain-Snow,336
2012-10-31,42,38,34,37,35,33,99,87,72,29.65,29.60,29.56,10,8,2,15,10,24,0.00,8,,312